createdAt,value
2022-11-16T00:03:16.823Z,4
2022-11-16T00:07:59.143Z,4
2022-11-16T00:12:41.451Z,4
2022-11-16T00:17:23.661Z,4
2022-11-16T00:22:05.976Z,4
2022-11-16T00:26:47.285Z,4
2022-11-16T00:31:29.599Z,4
2022-11-16T00:36:11.812Z,4
2022-11-16T00:40:54.127Z,4
2022-11-16T00:45:36.443Z,4
2022-11-16T00:50:18.657Z,4
2022-11-16T00:55:00.962Z,4
2022-11-16T00:59:43.278Z,4
2022-11-16T01:04:25.504Z,4
2022-11-16T01:09:07.805Z,4
2022-11-16T01:13:49.112Z,4
2022-11-16T01:18:30.434Z,4
2022-11-16T01:23:11.737Z,4
2022-11-16T01:27:53.053Z,4
2022-11-16T01:32:35.260Z,4
2022-11-16T01:37:17.577Z,4
2022-11-16T01:41:59.888Z,4
2022-11-16T01:46:42.098Z,4
2022-11-16T01:51:24.429Z,4
2022-11-16T01:56:06.726Z,4
2022-11-16T02:00:48.942Z,4
2022-11-16T02:05:31.251Z,4
2022-11-16T02:10:13.564Z,4
2022-11-16T02:14:55.776Z,4
2022-11-16T02:19:38.090Z,4
2022-11-16T02:29:02.614Z,4
2022-11-16T02:33:43.920Z,4
2022-11-16T02:38:26.234Z,4
2022-11-16T02:43:08.554Z,4
2022-11-16T02:47:50.765Z,4
2022-11-16T02:52:33.077Z,4
2022-11-16T02:57:15.391Z,4
2022-11-16T03:01:57.619Z,4
2022-11-16T03:06:39.914Z,4
2022-11-16T03:11:22.231Z,4
2022-11-16T03:16:04.440Z,9
2022-11-16T03:20:46.753Z,4
2022-11-16T03:25:29.066Z,4
2022-11-16T03:30:11.280Z,4
2022-11-16T03:34:52.589Z,4
2022-11-16T03:39:34.906Z,4
2022-11-16T03:44:17.219Z,9
2022-11-16T03:48:59.434Z,9
2022-11-16T03:53:41.748Z,9
2022-11-16T03:58:24.050Z,9
2022-11-16T04:03:06.272Z,9
2022-11-16T04:07:48.582Z,4
2022-11-16T04:12:30.898Z,4
2022-11-16T04:17:13.108Z,4
2022-11-16T04:21:55.424Z,9
2022-11-16T04:26:37.741Z,4
2022-11-16T04:31:19.947Z,4
2022-11-16T04:36:02.261Z,4
2022-11-16T04:40:43.572Z,4
2022-11-16T04:45:25.885Z,4
2022-11-16T04:50:08.105Z,4
2022-11-16T04:54:50.422Z,4
2022-11-16T04:59:31.730Z,4
2022-11-16T05:04:13.037Z,4
2022-11-16T05:08:55.251Z,4
2022-11-16T05:13:37.562Z,4
2022-11-16T05:18:19.876Z,4
2022-11-16T05:23:02.094Z,4
2022-11-16T05:27:43.508Z,4
2022-11-16T05:32:24.717Z,4
2022-11-16T05:37:07.028Z,4
2022-11-16T05:41:49.343Z,12
2022-11-16T05:46:31.555Z,12
2022-11-16T05:51:12.865Z,12
2022-11-16T05:55:55.174Z,15
2022-11-16T06:00:37.491Z,15
2022-11-16T06:10:02.013Z,31
2022-11-16T06:14:44.335Z,45
2022-11-16T06:28:51.171Z,127
2022-11-16T06:33:33.384Z,156
2022-11-16T06:38:15.696Z,241
2022-11-16T06:42:58.009Z,339
2022-11-16T06:47:40.221Z,450
2022-11-16T06:52:21.540Z,490
2022-11-16T06:57:03.847Z,504
2022-11-16T07:01:46.163Z,567
2022-11-16T07:06:28.370Z,562
2022-11-16T07:15:53.003Z,645
2022-11-16T07:20:35.212Z,818
2022-11-16T07:29:59.917Z,1321
2022-11-16T07:34:42.053Z,1184
2022-11-16T07:39:24.370Z,1039
2022-11-16T07:44:06.679Z,1572
2022-11-16T07:48:48.902Z,2665
2022-11-16T07:53:30.214Z,3282
2022-11-16T07:58:12.527Z,3579
2022-11-16T08:02:54.830Z,3321
2022-11-16T08:07:37.102Z,4273
2022-11-16T08:12:19.362Z,4320
2022-11-16T08:17:01.670Z,3677
2022-11-16T08:21:43.888Z,3052
2022-11-16T08:26:26.197Z,3293
2022-11-16T08:31:08.646Z,3097
2022-11-16T08:35:50.744Z,1440
2022-11-16T08:40:33.042Z,3028
2022-11-16T08:45:15.352Z,2129
2022-11-16T08:49:57.563Z,2092
2022-11-16T08:54:39.879Z,2165
2022-11-16T08:59:22.193Z,4909
2022-11-16T09:04:04.411Z,7991
2022-11-16T09:08:46.727Z,6639
2022-11-16T09:18:10.250Z,7536
2022-11-16T09:22:52.618Z,6705
2022-11-16T09:27:34.869Z,7285
2022-11-16T09:32:17.089Z,5644
2022-11-16T09:36:59.402Z,6496
2022-11-16T09:41:41.736Z,7085
2022-11-16T09:51:06.242Z,6480
2022-11-16T10:00:30.799Z,7627
2022-11-16T10:05:12.084Z,7276
2022-11-16T10:09:54.396Z,5394
2022-11-16T10:19:18.944Z,5631
2022-11-16T10:24:01.240Z,7969
2022-11-16T10:33:25.781Z,7228
2022-11-16T10:38:08.087Z,4999
2022-11-16T10:47:32.613Z,8170
2022-11-16T10:52:20.810Z,6380
2022-11-16T11:01:39.530Z,6705
2022-11-16T11:06:21.769Z,10310
2022-11-16T11:15:46.284Z,12620
2022-11-16T11:20:28.597Z,9281
2022-11-16T11:25:10.909Z,8131
2022-11-16T11:29:53.125Z,9134
2022-11-16T11:34:35.437Z,8941
2022-11-16T11:39:17.757Z,9485
2022-11-16T11:43:59.983Z,7219
2022-11-16T11:53:24.587Z,7218
2022-11-16T11:58:06.807Z,7812
2022-11-16T12:02:49.225Z,6124
2022-11-16T12:07:31.543Z,6498
2022-11-16T12:12:12.950Z,9126
2022-11-16T12:16:55.364Z,13774
2022-11-16T12:21:37.675Z,12952
2022-11-16T12:26:20.018Z,17234
2022-11-16T12:31:02.504Z,27458
2022-11-16T12:35:44.717Z,23215
2022-11-16T12:40:27.051Z,23943
2022-11-16T12:45:09.440Z,12306
2022-11-16T12:49:51.777Z,12064
2022-11-16T12:54:34.181Z,16012
2022-11-16T12:59:16.496Z,11933
2022-11-16T13:03:58.805Z,8352
2022-11-16T13:08:41.226Z,10834
2022-11-16T13:13:23.534Z,14116
2022-11-16T13:18:05.848Z,11561
2022-11-16T13:27:29.679Z,5259
2022-11-16T13:32:12.019Z,4137
2022-11-16T13:36:54.407Z,3566
2022-11-16T13:41:35.820Z,3855
2022-11-16T13:46:17.263Z,7821
2022-11-16T13:50:59.569Z,7629
2022-11-16T13:55:41.858Z,9493
2022-11-16T14:00:24.273Z,11061
2022-11-16T14:05:06.595Z,11870
2022-11-16T14:09:48.906Z,11708
2022-11-16T14:14:31.319Z,9014
2022-11-16T14:19:13.631Z,8170
2022-11-16T14:23:56.054Z,7613
2022-11-16T14:28:38.356Z,5724
2022-11-16T14:33:20.666Z,5397
2022-11-16T14:38:03.094Z,7142
2022-11-16T14:42:45.402Z,4052
2022-11-16T14:52:10.130Z,3293
2022-11-16T14:56:51.544Z,2938
2022-11-16T15:01:33.925Z,2111
2022-11-16T15:06:16.175Z,1726
2022-11-16T15:10:58.587Z,1416
2022-11-16T15:15:40.898Z,1175
2022-11-16T15:20:23.314Z,966
2022-11-16T15:29:47.946Z,567
2022-11-16T15:34:30.372Z,368
2022-11-16T15:39:12.666Z,233
2022-11-16T15:43:54.985Z,132
2022-11-16T15:48:37.428Z,73
2022-11-16T15:53:19.709Z,41
2022-11-16T15:58:02.131Z,31
2022-11-16T16:02:44.447Z,18
2022-11-16T16:07:25.858Z,18
2022-11-16T16:12:08.203Z,15
2022-11-16T16:21:32.898Z,15
2022-11-16T16:26:15.309Z,15
2022-11-16T16:30:57.634Z,9
2022-11-16T16:35:39.938Z,12
2022-11-16T16:40:22.354Z,16
2022-11-16T16:45:04.665Z,16
2022-11-16T16:49:47.032Z,15
2022-11-16T16:54:29.399Z,15
2022-11-16T16:59:11.741Z,16
2022-11-16T17:03:54.123Z,15
2022-11-16T17:08:35.549Z,15
2022-11-16T17:13:17.850Z,15
2022-11-16T17:18:00.162Z,15
2022-11-16T17:22:42.583Z,16
2022-11-16T17:27:24.895Z,15
2022-11-16T17:32:07.240Z,15
2022-11-16T17:36:49.627Z,15
2022-11-16T17:41:31.937Z,15
2022-11-16T17:46:14.252Z,15
2022-11-16T17:50:56.671Z,12
2022-11-16T17:55:38.981Z,12
2022-11-16T18:00:21.399Z,12
2022-11-16T18:05:03.812Z,12
2022-11-16T18:09:46.153Z,15
2022-11-16T18:14:28.442Z,12
2022-11-16T18:19:10.822Z,9
2022-11-16T18:23:52.172Z,9
2022-11-16T18:28:34.481Z,3
2022-11-16T18:33:16.895Z,3
2022-11-16T18:42:41.627Z,3
2022-11-16T18:47:23.934Z,3
2022-11-16T18:52:06.303Z,3
2022-11-16T18:56:48.658Z,3
2022-11-16T19:01:30.981Z,3
2022-11-16T19:06:13.396Z,3
2022-11-16T19:10:55.715Z,3
2022-11-16T19:15:38.021Z,3
2022-11-16T19:20:20.440Z,3
2022-11-16T19:25:02.757Z,3
2022-11-16T19:29:44.237Z,3
2022-11-16T19:34:26.576Z,3
2022-11-16T19:43:51.269Z,3
2022-11-16T19:48:33.642Z,3
2022-11-16T19:53:15.933Z,3
2022-11-16T19:57:58.252Z,3
2022-11-16T20:02:40.666Z,3
2022-11-16T20:07:22.978Z,12
2022-11-16T20:16:47.707Z,12
2022-11-16T20:21:30.081Z,12
2022-11-16T20:26:12.444Z,12
2022-11-16T20:30:54.831Z,12
2022-11-16T20:35:36.166Z,12
2022-11-16T20:40:18.480Z,12
2022-11-16T20:45:00.893Z,12
2022-11-16T20:49:43.211Z,12
2022-11-16T20:54:25.618Z,12
2022-11-16T20:59:08.012Z,12
2022-11-16T21:03:50.251Z,12
2022-11-16T21:08:32.746Z,12
2022-11-16T21:17:57.376Z,12
2022-11-16T21:22:38.807Z,12
2022-11-16T21:27:20.218Z,12
2022-11-16T21:32:02.655Z,12
2022-11-16T21:36:43.999Z,12
2022-11-16T21:41:26.314Z,9
2022-11-16T21:46:08.693Z,9
2022-11-16T21:50:51.011Z,9
2022-11-16T21:55:33.404Z,9
2022-11-16T22:04:58.046Z,9
2022-11-16T22:09:40.453Z,9
2022-11-16T22:14:22.765Z,9
2022-11-16T22:19:05.083Z,9
2022-11-16T22:23:47.494Z,9
2022-11-16T22:28:29.804Z,9
2022-11-16T22:33:12.285Z,9
2022-11-16T22:37:53.656Z,9
2022-11-16T22:42:35.950Z,9
2022-11-16T22:47:18.265Z,9
2022-11-16T22:52:00.722Z,9
2022-11-16T22:56:42.988Z,9
2022-11-16T23:01:25.311Z,9
2022-11-16T23:06:06.831Z,9
2022-11-16T23:10:48.250Z,9
2022-11-16T23:15:30.550Z,9
2022-11-16T23:20:12.864Z,9
2022-11-16T23:24:55.298Z,9
2022-11-16T23:29:37.619Z,9
2022-11-16T23:34:19.963Z,9
2022-11-16T23:39:02.326Z,9
2022-11-16T23:43:44.636Z,9
2022-11-16T23:48:27.053Z,9
2022-11-16T23:53:09.368Z,9
2022-11-16T23:57:51.685Z,9
